sensor_id;sensor_type;location;lat;lon;timestamp;temperature;humidity
63966;DHT22;50151;52.030;5.350;2022-07-25T04:21:42;20.60;78.90
63966;DHT22;50151;52.030;5.350;2022-07-25T04:24:09;20.70;78.50
63966;DHT22;50151;52.030;5.350;2022-07-25T04:26:36;20.70;78.10
63966;DHT22;50151;52.030;5.350;2022-07-25T04:29:02;20.70;78.60
63966;DHT22;50151;52.030;5.350;2022-07-25T04:31:29;20.70;78.40
63966;DHT22;50151;52.030;5.350;2022-07-25T04:33:56;20.70;79.10
63966;DHT22;50151;52.030;5.350;2022-07-25T04:36:23;20.70;78.90
63966;DHT22;50151;52.030;5.350;2022-07-25T04:38:49;20.80;79.00
63966;DHT22;50151;52.030;5.350;2022-07-25T04:41:16;20.70;79.20
63966;DHT22;50151;52.030;5.350;2022-07-25T04:43:43;20.80;79.20
63966;DHT22;50151;52.030;5.350;2022-07-25T04:46:19;20.70;79.60
63966;DHT22;50151;52.030;5.350;2022-07-25T04:48:46;20.80;79.70
63966;DHT22;50151;52.030;5.350;2022-07-25T04:51:13;20.80;79.90
63966;DHT22;50151;52.030;5.350;2022-07-25T04:53:40;20.80;79.40
63966;DHT22;50151;52.030;5.350;2022-07-25T04:56:07;20.90;79.50
63966;DHT22;50151;52.030;5.350;2022-07-25T04:58:34;20.90;79.20
63966;DHT22;50151;52.030;5.350;2022-07-25T05:01:01;20.90;79.90
63966;DHT22;50151;52.030;5.350;2022-07-25T05:03:28;20.90;79.80
63966;DHT22;50151;52.030;5.350;2022-07-25T05:05:55;20.90;79.70
63966;DHT22;50151;52.030;5.350;2022-07-25T05:08:21;20.90;79.50
63966;DHT22;50151;52.030;5.350;2022-07-25T05:10:48;21.00;79.80
63966;DHT22;50151;52.030;5.350;2022-07-25T05:13:15;20.90;79.60
63966;DHT22;50151;52.030;5.350;2022-07-25T05:15:41;20.90;79.70
63966;DHT22;50151;52.030;5.350;2022-07-25T05:18:08;20.90;79.60
63966;DHT22;50151;52.030;5.350;2022-07-25T05:20:35;20.90;79.50
63966;DHT22;50151;52.030;5.350;2022-07-25T05:23:02;21.00;78.00
63966;DHT22;50151;52.030;5.350;2022-07-25T05:25:29;21.10;78.10
63966;DHT22;50151;52.030;5.350;2022-07-25T05:27:55;21.20;78.00
63966;DHT22;50151;52.030;5.350;2022-07-25T05:30:24;21.20;78.40
63966;DHT22;50151;52.030;5.350;2022-07-25T05:32:51;21.30;77.90
63966;DHT22;50151;52.030;5.350;2022-07-25T05:35:17;21.40;77.10
63966;DHT22;50151;52.030;5.350;2022-07-25T05:37:44;21.50;76.70
63966;DHT22;50151;52.030;5.350;2022-07-25T05:40:11;21.60;75.80
63966;DHT22;50151;52.030;5.350;2022-07-25T05:42:38;21.60;74.50
63966;DHT22;50151;52.030;5.350;2022-07-25T05:45:05;21.70;73.60
63966;DHT22;50151;52.030;5.350;2022-07-25T05:47:32;21.80;73.50
63966;DHT22;50151;52.030;5.350;2022-07-25T05:49:59;21.80;74.00
63966;DHT22;50151;52.030;5.350;2022-07-25T05:52:27;21.70;72.50
63966;DHT22;50151;52.030;5.350;2022-07-25T05:54:53;21.80;72.90
63966;DHT22;50151;52.030;5.350;2022-07-25T05:57:20;21.80;72.70
63966;DHT22;50151;52.030;5.350;2022-07-25T05:59:47;21.80;73.00
63966;DHT22;50151;52.030;5.350;2022-07-25T06:02:14;21.80;73.10
63966;DHT22;50151;52.030;5.350;2022-07-25T06:04:41;21.70;72.80
63966;DHT22;50151;52.030;5.350;2022-07-25T06:07:07;21.80;73.10
63966;DHT22;50151;52.030;5.350;2022-07-25T06:09:37;21.80;72.40
63966;DHT22;50151;52.030;5.350;2022-07-25T06:12:04;21.80;72.20
63966;DHT22;50151;52.030;5.350;2022-07-25T06:14:31;21.90;72.10
63966;DHT22;50151;52.030;5.350;2022-07-25T06:16:58;22.00;71.70
63966;DHT22;50151;52.030;5.350;2022-07-25T06:19:24;22.00;71.20
63966;DHT22;50151;52.030;5.350;2022-07-25T06:21:51;22.00;70.90
63966;DHT22;50151;52.030;5.350;2022-07-25T06:24:18;22.20;70.70
63966;DHT22;50151;52.030;5.350;2022-07-25T06:26:44;22.30;70.70
63966;DHT22;50151;52.030;5.350;2022-07-25T06:29:11;22.40;70.20
63966;DHT22;50151;52.030;5.350;2022-07-25T06:31:38;22.30;70.40
63966;DHT22;50151;52.030;5.350;2022-07-25T06:34:05;22.30;70.90
63966;DHT22;50151;52.030;5.350;2022-07-25T06:36:33;22.20;70.30
63966;DHT22;50151;52.030;5.350;2022-07-25T06:39:00;22.30;70.60
63966;DHT22;50151;52.030;5.350;2022-07-25T06:41:27;22.40;70.10
63966;DHT22;50151;52.030;5.350;2022-07-25T06:43:53;22.50;70.10
63966;DHT22;50151;52.030;5.350;2022-07-25T06:46:20;22.50;70.00
63966;DHT22;50151;52.030;5.350;2022-07-25T06:48:47;22.60;70.10
63966;DHT22;50151;52.030;5.350;2022-07-25T06:51:14;22.60;69.80
63966;DHT22;50151;52.030;5.350;2022-07-25T06:53:40;22.70;69.40
63966;DHT22;50151;52.030;5.350;2022-07-25T06:56:07;22.80;69.20
63966;DHT22;50151;52.030;5.350;2022-07-25T06:58:36;23.00;69.10
63966;DHT22;50151;52.030;5.350;2022-07-25T07:01:03;23.00;68.70
63966;DHT22;50151;52.030;5.350;2022-07-25T07:03:30;23.10;68.40
63966;DHT22;50151;52.030;5.350;2022-07-25T07:05:58;23.00;67.00
63966;DHT22;50151;52.030;5.350;2022-07-25T07:08:24;23.00;66.70
63966;DHT22;50151;52.030;5.350;2022-07-25T07:10:51;22.90;65.50
63966;DHT22;50151;52.030;5.350;2022-07-25T07:13:18;22.90;64.80
63966;DHT22;50151;52.030;5.350;2022-07-25T07:15:50;22.90;65.00
63966;DHT22;50151;52.030;5.350;2022-07-25T07:18:18;23.00;64.20
63966;DHT22;50151;52.030;5.350;2022-07-25T07:20:45;23.10;63.80
63966;DHT22;50151;52.030;5.350;2022-07-25T07:23:13;23.00;63.70
63966;DHT22;50151;52.030;5.350;2022-07-25T07:25:42;23.00;63.40
63966;DHT22;50151;52.030;5.350;2022-07-25T07:28:11;23.10;63.70
63966;DHT22;50151;52.030;5.350;2022-07-25T07:30:38;23.10;63.30
63966;DHT22;50151;52.030;5.350;2022-07-25T07:33:25;23.20;63.40
63966;DHT22;50151;52.030;5.350;2022-07-25T07:35:52;23.20;63.20
63966;DHT22;50151;52.030;5.350;2022-07-25T07:38:24;23.20;63.50
63966;DHT22;50151;52.030;5.350;2022-07-25T07:40:52;23.20;63.10
63966;DHT22;50151;52.030;5.350;2022-07-25T07:43:19;23.30;63.00
63966;DHT22;50151;52.030;5.350;2022-07-25T07:45:46;23.30;63.60
63966;DHT22;50151;52.030;5.350;2022-07-25T07:48:12;23.40;63.20
63966;DHT22;50151;52.030;5.350;2022-07-25T07:50:39;23.40;63.40
63966;DHT22;50151;52.030;5.350;2022-07-25T07:53:06;23.50;63.60
63966;DHT22;50151;52.030;5.350;2022-07-25T07:55:33;23.60;63.90
63966;DHT22;50151;52.030;5.350;2022-07-25T07:58:16;23.70;63.30
63966;DHT22;50151;52.030;5.350;2022-07-25T08:00:44;23.60;63.70
63966;DHT22;50151;52.030;5.350;2022-07-25T08:03:11;23.70;64.00
63966;DHT22;50151;52.030;5.350;2022-07-25T08:05:41;23.60;64.00
63966;DHT22;50151;52.030;5.350;2022-07-25T08:08:10;23.60;64.30
63966;DHT22;50151;52.030;5.350;2022-07-25T08:10:42;23.70;64.70
63966;DHT22;50151;52.030;5.350;2022-07-25T08:13:17;23.90;64.60
63966;DHT22;50151;52.030;5.350;2022-07-25T08:15:47;23.90;64.10
63966;DHT22;50151;52.030;5.350;2022-07-25T08:18:14;24.10;64.20
63966;DHT22;50151;52.030;5.350;2022-07-25T08:20:44;24.00;64.70
63966;DHT22;50151;52.030;5.350;2022-07-25T08:23:11;24.10;64.30
63966;DHT22;50151;52.030;5.350;2022-07-25T08:25:39;23.90;63.80
63966;DHT22;50151;52.030;5.350;2022-07-25T08:28:06;23.90;64.20
63966;DHT22;50151;52.030;5.350;2022-07-25T08:30:34;23.80;64.90
63966;DHT22;50151;52.030;5.350;2022-07-25T08:33:04;23.60;65.00
63966;DHT22;50151;52.030;5.350;2022-07-25T08:35:32;23.60;66.00
63966;DHT22;50151;52.030;5.350;2022-07-25T08:38:00;23.40;66.10
63966;DHT22;50151;52.030;5.350;2022-07-25T08:40:29;23.50;66.50
63966;DHT22;50151;52.030;5.350;2022-07-25T08:42:57;23.40;66.30
63966;DHT22;50151;52.030;5.350;2022-07-25T08:45:25;23.10;66.80
63966;DHT22;50151;52.030;5.350;2022-07-25T08:47:54;23.00;66.80
63966;DHT22;50151;52.030;5.350;2022-07-25T08:50:23;23.50;65.90
63966;DHT22;50151;52.030;5.350;2022-07-25T08:52:50;23.90;65.20
63966;DHT22;50151;52.030;5.350;2022-07-25T08:55:37;24.20;64.50
63966;DHT22;50151;52.030;5.350;2022-07-25T08:58:04;24.40;64.00
63966;DHT22;50151;52.030;5.350;2022-07-25T09:00:31;24.60;62.20
63966;DHT22;50151;52.030;5.350;2022-07-25T09:03:01;24.40;62.60
63966;DHT22;50151;52.030;5.350;2022-07-25T09:05:30;24.50;64.20
63966;DHT22;50151;52.030;5.350;2022-07-25T09:08:09;24.30;63.50
63966;DHT22;50151;52.030;5.350;2022-07-25T09:10:37;24.40;63.50
63966;DHT22;50151;52.030;5.350;2022-07-25T09:13:07;24.20;64.20
63966;DHT22;50151;52.030;5.350;2022-07-25T09:15:38;24.40;65.50
63966;DHT22;50151;52.030;5.350;2022-07-25T09:18:09;24.40;65.20
63966;DHT22;50151;52.030;5.350;2022-07-25T09:20:45;24.30;66.60
63966;DHT22;50151;52.030;5.350;2022-07-25T09:23:19;24.30;67.30
63966;DHT22;50151;52.030;5.350;2022-07-25T09:25:52;24.30;67.10
63966;DHT22;50151;52.030;5.350;2022-07-25T09:28:26;24.40;67.70
63966;DHT22;50151;52.030;5.350;2022-07-25T09:31:00;24.30;68.80
63966;DHT22;50151;52.030;5.350;2022-07-25T09:33:28;24.20;68.30
63966;DHT22;50151;52.030;5.350;2022-07-25T09:35:55;24.10;69.30
63966;DHT22;50151;52.030;5.350;2022-07-25T09:38:23;24.10;68.10
63966;DHT22;50151;52.030;5.350;2022-07-25T09:40:58;23.90;68.40
63966;DHT22;50151;52.030;5.350;2022-07-25T09:43:43;24.00;68.00
63966;DHT22;50151;52.030;5.350;2022-07-25T09:46:11;23.90;67.10
63966;DHT22;50151;52.030;5.350;2022-07-25T09:48:39;23.70;66.50
63966;DHT22;50151;52.030;5.350;2022-07-25T09:51:06;23.90;66.30
63966;DHT22;50151;52.030;5.350;2022-07-25T09:53:33;24.20;65.80
63966;DHT22;50151;52.030;5.350;2022-07-25T09:56:00;24.20;64.90
63966;DHT22;50151;52.030;5.350;2022-07-25T09:58:27;24.10;64.30
63966;DHT22;50151;52.030;5.350;2022-07-25T10:01:05;24.10;61.70
63966;DHT22;50151;52.030;5.350;2022-07-25T10:03:37;24.30;62.20
63966;DHT22;50151;52.030;5.350;2022-07-25T10:06:56;24.70;61.30
63966;DHT22;50151;52.030;5.350;2022-07-25T10:09:16;24.90;61.90
63966;DHT22;50151;52.030;5.350;2022-07-25T10:12:05;24.70;62.00
63966;DHT22;50151;52.030;5.350;2022-07-25T10:14:33;24.80;62.00
63966;DHT22;50151;52.030;5.350;2022-07-25T10:17:00;24.70;62.00
63966;DHT22;50151;52.030;5.350;2022-07-25T10:22:15;24.60;61.50
63966;DHT22;50151;52.030;5.350;2022-07-25T10:24:51;24.60;61.40
63966;DHT22;50151;52.030;5.350;2022-07-25T10:27:23;24.70;60.40
63966;DHT22;50151;52.030;5.350;2022-07-25T10:29:52;24.70;58.80
63966;DHT22;50151;52.030;5.350;2022-07-25T10:32:24;25.10;59.10
63966;DHT22;50151;52.030;5.350;2022-07-25T10:34:57;25.00;59.00
63966;DHT22;50151;52.030;5.350;2022-07-25T10:37:27;24.80;60.10
63966;DHT22;50151;52.030;5.350;2022-07-25T10:39:54;24.90;59.50
63966;DHT22;50151;52.030;5.350;2022-07-25T10:42:22;24.60;58.80
63966;DHT22;50151;52.030;5.350;2022-07-25T10:44:53;25.00;58.90
63966;DHT22;50151;52.030;5.350;2022-07-25T10:47:22;25.10;57.60
63966;DHT22;50151;52.030;5.350;2022-07-25T10:49:56;24.90;57.40
63966;DHT22;50151;52.030;5.350;2022-07-25T10:52:43;25.20;57.90
63966;DHT22;50151;52.030;5.350;2022-07-25T10:55:09;25.90;56.40
63966;DHT22;50151;52.030;5.350;2022-07-25T10:57:58;26.20;55.30
63966;DHT22;50151;52.030;5.350;2022-07-25T11:00:42;25.80;53.80
63966;DHT22;50151;52.030;5.350;2022-07-25T11:03:11;25.30;52.50
63966;DHT22;50151;52.030;5.350;2022-07-25T11:05:45;24.90;53.00
63966;DHT22;50151;52.030;5.350;2022-07-25T11:08:12;24.90;53.20
63966;DHT22;50151;52.030;5.350;2022-07-25T11:10:51;24.70;53.90
63966;DHT22;50151;52.030;5.350;2022-07-25T11:13:19;24.50;53.80
63966;DHT22;50151;52.030;5.350;2022-07-25T11:15:46;24.20;53.60
63966;DHT22;50151;52.030;5.350;2022-07-25T11:18:15;24.40;54.20
63966;DHT22;50151;52.030;5.350;2022-07-25T11:20:44;24.40;54.80
63966;DHT22;50151;52.030;5.350;2022-07-25T11:23:10;24.30;56.10
63966;DHT22;50151;52.030;5.350;2022-07-25T11:25:37;24.10;56.60
63966;DHT22;50151;52.030;5.350;2022-07-25T11:28:04;24.10;57.10
63966;DHT22;50151;52.030;5.350;2022-07-25T11:30:30;24.00;57.30
63966;DHT22;50151;52.030;5.350;2022-07-25T11:32:59;24.00;58.50
63966;DHT22;50151;52.030;5.350;2022-07-25T11:35:31;23.90;58.50
63966;DHT22;50151;52.030;5.350;2022-07-25T11:38:02;24.30;58.70
63966;DHT22;50151;52.030;5.350;2022-07-25T11:40:31;23.80;58.80
63966;DHT22;50151;52.030;5.350;2022-07-25T11:42:58;23.90;59.80
63966;DHT22;50151;52.030;5.350;2022-07-25T11:45:30;23.80;60.30
63966;DHT22;50151;52.030;5.350;2022-07-25T11:48:10;23.70;61.20
63966;DHT22;50151;52.030;5.350;2022-07-25T11:50:39;23.70;60.90
63966;DHT22;50151;52.030;5.350;2022-07-25T11:53:09;23.70;61.40
63966;DHT22;50151;52.030;5.350;2022-07-25T11:55:38;23.90;61.50
63966;DHT22;50151;52.030;5.350;2022-07-25T11:58:06;23.70;61.20
63966;DHT22;50151;52.030;5.350;2022-07-25T12:00:38;23.30;61.60
63966;DHT22;50151;52.030;5.350;2022-07-25T12:03:06;23.30;61.80
63966;DHT22;50151;52.030;5.350;2022-07-25T12:05:34;23.30;61.70
63966;DHT22;50151;52.030;5.350;2022-07-25T12:08:09;23.30;61.90
63966;DHT22;50151;52.030;5.350;2022-07-25T12:10:37;23.20;61.80
63966;DHT22;50151;52.030;5.350;2022-07-25T12:13:05;23.30;61.90
63966;DHT22;50151;52.030;5.350;2022-07-25T12:15:39;23.00;61.90
63966;DHT22;50151;52.030;5.350;2022-07-25T12:18:07;23.00;62.60
63966;DHT22;50151;52.030;5.350;2022-07-25T12:20:41;23.00;62.60
63966;DHT22;50151;52.030;5.350;2022-07-25T12:23:09;22.80;62.80
63966;DHT22;50151;52.030;5.350;2022-07-25T12:25:39;22.80;62.50
63966;DHT22;50151;52.030;5.350;2022-07-25T12:28:06;22.80;62.60
63966;DHT22;50151;52.030;5.350;2022-07-25T12:30:35;22.80;62.60
63966;DHT22;50151;52.030;5.350;2022-07-25T12:33:04;23.00;62.10
63966;DHT22;50151;52.030;5.350;2022-07-25T12:35:31;23.10;61.60
63966;DHT22;50151;52.030;5.350;2022-07-25T12:37:58;23.30;61.20
63966;DHT22;50151;52.030;5.350;2022-07-25T12:40:25;23.40;58.80
63966;DHT22;50151;52.030;5.350;2022-07-25T12:42:52;23.30;57.00
63966;DHT22;50151;52.030;5.350;2022-07-25T12:45:19;23.40;56.30
63966;DHT22;50151;52.030;5.350;2022-07-25T12:47:46;23.60;55.40
63966;DHT22;50151;52.030;5.350;2022-07-25T12:50:14;23.70;55.30
63966;DHT22;50151;52.030;5.350;2022-07-25T12:52:44;24.10;54.80
63966;DHT22;50151;52.030;5.350;2022-07-25T12:55:14;24.40;53.10
63966;DHT22;50151;52.030;5.350;2022-07-25T12:57:41;24.70;52.20
63966;DHT22;50151;52.030;5.350;2022-07-25T13:00:13;24.70;52.50
63966;DHT22;50151;52.030;5.350;2022-07-25T13:02:40;25.60;53.60
63966;DHT22;50151;52.030;5.350;2022-07-25T13:05:07;24.80;51.00
63966;DHT22;50151;52.030;5.350;2022-07-25T13:07:34;24.40;51.30
63966;DHT22;50151;52.030;5.350;2022-07-25T13:10:02;24.50;51.70
63966;DHT22;50151;52.030;5.350;2022-07-25T13:12:29;24.60;52.40
63966;DHT22;50151;52.030;5.350;2022-07-25T13:14:57;24.50;52.00
63966;DHT22;50151;52.030;5.350;2022-07-25T13:17:24;24.50;52.00
63966;DHT22;50151;52.030;5.350;2022-07-25T13:19:54;25.10;51.30
63966;DHT22;50151;52.030;5.350;2022-07-25T13:22:21;25.00;50.80
63966;DHT22;50151;52.030;5.350;2022-07-25T13:24:48;25.30;50.20
63966;DHT22;50151;52.030;5.350;2022-07-25T13:27:20;25.60;50.20
63966;DHT22;50151;52.030;5.350;2022-07-25T13:29:48;25.50;49.80
63966;DHT22;50151;52.030;5.350;2022-07-25T13:32:21;25.40;49.70
63966;DHT22;50151;52.030;5.350;2022-07-25T13:34:48;24.90;50.70
63966;DHT22;50151;52.030;5.350;2022-07-25T13:37:15;25.80;51.00
63966;DHT22;50151;52.030;5.350;2022-07-25T13:39:42;25.60;48.80
63966;DHT22;50151;52.030;5.350;2022-07-25T13:42:09;25.80;49.00
63966;DHT22;50151;52.030;5.350;2022-07-25T13:44:36;25.60;49.30
63966;DHT22;50151;52.030;5.350;2022-07-25T13:47:03;26.00;49.30
63966;DHT22;50151;52.030;5.350;2022-07-25T13:49:31;25.10;50.10
63966;DHT22;50151;52.030;5.350;2022-07-25T13:51:57;25.30;49.90
63966;DHT22;50151;52.030;5.350;2022-07-25T13:54:24;24.70;49.90
63966;DHT22;50151;52.030;5.350;2022-07-25T13:56:52;24.60;50.10
63966;DHT22;50151;52.030;5.350;2022-07-25T13:59:19;24.90;50.50
63966;DHT22;50151;52.030;5.350;2022-07-25T14:01:48;25.40;49.50
63966;DHT22;50151;52.030;5.350;2022-07-25T14:04:15;25.40;48.80
63966;DHT22;50151;52.030;5.350;2022-07-25T14:06:42;25.70;48.60
63966;DHT22;50151;52.030;5.350;2022-07-25T14:09:09;25.00;48.60
63966;DHT22;50151;52.030;5.350;2022-07-25T14:11:37;25.60;49.00
63966;DHT22;50151;52.030;5.350;2022-07-25T14:14:04;25.20;48.10
63966;DHT22;50151;52.030;5.350;2022-07-25T14:16:31;24.80;49.20
63966;DHT22;50151;52.030;5.350;2022-07-25T14:19:01;25.30;49.00
63966;DHT22;50151;52.030;5.350;2022-07-25T14:21:29;24.90;47.80
63966;DHT22;50151;52.030;5.350;2022-07-25T14:23:56;24.80;49.60
63966;DHT22;50151;52.030;5.350;2022-07-25T14:26:22;25.50;48.90
63966;DHT22;50151;52.030;5.350;2022-07-25T14:28:50;25.00;48.50
63966;DHT22;50151;52.030;5.350;2022-07-25T14:31:16;24.80;49.50
63966;DHT22;50151;52.030;5.350;2022-07-25T14:33:44;24.90;49.10
63966;DHT22;50151;52.030;5.350;2022-07-25T14:36:11;25.70;49.20
63966;DHT22;50151;52.030;5.350;2022-07-25T14:38:38;26.00;45.90
63966;DHT22;50151;52.030;5.350;2022-07-25T14:41:06;26.90;45.40
63966;DHT22;50151;52.030;5.350;2022-07-25T14:43:39;26.60;44.50
63966;DHT22;50151;52.030;5.350;2022-07-25T14:46:06;26.80;44.30
63966;DHT22;50151;52.030;5.350;2022-07-25T14:48:37;26.30;42.30
63966;DHT22;50151;52.030;5.350;2022-07-25T14:51:05;26.40;42.40
63966;DHT22;50151;52.030;5.350;2022-07-25T14:53:33;26.10;41.10
63966;DHT22;50151;52.030;5.350;2022-07-25T14:56:02;26.30;41.00
63966;DHT22;50151;52.030;5.350;2022-07-25T14:58:30;26.40;40.40
63966;DHT22;50151;52.030;5.350;2022-07-25T15:00:57;26.30;40.70
63966;DHT22;50151;52.030;5.350;2022-07-25T15:03:24;26.50;41.50
63966;DHT22;50151;52.030;5.350;2022-07-25T15:05:52;26.00;42.10
63966;DHT22;50151;52.030;5.350;2022-07-25T15:08:19;25.90;40.90
63966;DHT22;50151;52.030;5.350;2022-07-25T15:10:46;26.00;41.40
63966;DHT22;50151;52.030;5.350;2022-07-25T15:13:13;26.10;40.60
63966;DHT22;50151;52.030;5.350;2022-07-25T15:15:57;26.30;40.90
63966;DHT22;50151;52.030;5.350;2022-07-25T15:18:24;26.00;40.80
63966;DHT22;50151;52.030;5.350;2022-07-25T15:20:51;25.90;41.90
63966;DHT22;50151;52.030;5.350;2022-07-25T15:23:18;26.00;42.00
63966;DHT22;50151;52.030;5.350;2022-07-25T15:25:47;25.80;42.60
63966;DHT22;50151;52.030;5.350;2022-07-25T15:28:36;25.60;43.30
63966;DHT22;50151;52.030;5.350;2022-07-25T15:31:05;25.50;43.10
63966;DHT22;50151;52.030;5.350;2022-07-25T15:33:33;25.40;43.50
63966;DHT22;50151;52.030;5.350;2022-07-25T15:36:00;25.80;43.30
63966;DHT22;50151;52.030;5.350;2022-07-25T15:38:27;25.70;42.60
63966;DHT22;50151;52.030;5.350;2022-07-25T15:40:57;25.80;42.70
63966;DHT22;50151;52.030;5.350;2022-07-25T15:43:24;25.50;42.50
63966;DHT22;50151;52.030;5.350;2022-07-25T15:45:51;25.50;43.10
63966;DHT22;50151;52.030;5.350;2022-07-25T15:48:18;25.60;43.80
63966;DHT22;50151;52.030;5.350;2022-07-25T15:50:47;26.10;44.00
63966;DHT22;50151;52.030;5.350;2022-07-25T15:53:16;25.60;42.70
63966;DHT22;50151;52.030;5.350;2022-07-25T15:55:43;25.60;42.40
63966;DHT22;50151;52.030;5.350;2022-07-25T15:58:10;25.60;42.20
63966;DHT22;50151;52.030;5.350;2022-07-25T16:00:38;25.50;42.90
63966;DHT22;50151;52.030;5.350;2022-07-25T16:03:06;25.40;43.40
63966;DHT22;50151;52.030;5.350;2022-07-25T16:05:34;25.20;43.40
63966;DHT22;50151;52.030;5.350;2022-07-25T16:08:01;25.70;43.70
63966;DHT22;50151;52.030;5.350;2022-07-25T16:10:30;25.70;43.40
63966;DHT22;50151;52.030;5.350;2022-07-25T16:12:57;25.30;44.20
63966;DHT22;50151;52.030;5.350;2022-07-25T16:15:25;25.30;44.30
63966;DHT22;50151;52.030;5.350;2022-07-25T16:17:52;24.90;45.20
63966;DHT22;50151;52.030;5.350;2022-07-25T16:20:28;25.00;46.00
63966;DHT22;50151;52.030;5.350;2022-07-25T16:22:55;25.20;45.80
63966;DHT22;50151;52.030;5.350;2022-07-25T16:25:24;25.00;45.80
63966;DHT22;50151;52.030;5.350;2022-07-25T16:27:51;25.40;45.80
63966;DHT22;50151;52.030;5.350;2022-07-25T16:30:19;25.50;45.60
63966;DHT22;50151;52.030;5.350;2022-07-25T16:32:46;25.00;45.40
63966;DHT22;50151;52.030;5.350;2022-07-25T16:35:13;25.00;45.80
63966;DHT22;50151;52.030;5.350;2022-07-25T16:37:40;24.80;46.20
63966;DHT22;50151;52.030;5.350;2022-07-25T16:40:08;24.90;46.30
63966;DHT22;50151;52.030;5.350;2022-07-25T16:42:35;25.10;46.50
63966;DHT22;50151;52.030;5.350;2022-07-25T16:45:03;24.90;46.80
63966;DHT22;50151;52.030;5.350;2022-07-25T16:47:30;24.70;46.50
63966;DHT22;50151;52.030;5.350;2022-07-25T16:49:56;24.70;46.50
63966;DHT22;50151;52.030;5.350;2022-07-25T16:52:23;24.70;46.80
63966;DHT22;50151;52.030;5.350;2022-07-25T16:54:50;24.90;46.80
63966;DHT22;50151;52.030;5.350;2022-07-25T16:57:16;24.90;46.70
63966;DHT22;50151;52.030;5.350;2022-07-25T16:59:49;24.60;46.90
63966;DHT22;50151;52.030;5.350;2022-07-25T17:02:16;24.60;46.60
63966;DHT22;50151;52.030;5.350;2022-07-25T17:04:43;24.20;47.40
63966;DHT22;50151;52.030;5.350;2022-07-25T17:07:10;24.10;48.30
63966;DHT22;50151;52.030;5.350;2022-07-25T17:09:37;23.80;48.20
63966;DHT22;50151;52.030;5.350;2022-07-25T17:12:06;24.00;47.80
63966;DHT22;50151;52.030;5.350;2022-07-25T17:14:33;24.10;47.70
63966;DHT22;50151;52.030;5.350;2022-07-25T17:17:00;24.00;47.90
63966;DHT22;50151;52.030;5.350;2022-07-25T17:19:27;23.90;48.60
63966;DHT22;50151;52.030;5.350;2022-07-25T17:21:54;23.80;48.40
63966;DHT22;50151;52.030;5.350;2022-07-25T17:24:23;23.90;48.80
63966;DHT22;50151;52.030;5.350;2022-07-25T17:26:50;23.90;49.30
63966;DHT22;50151;52.030;5.350;2022-07-25T17:29:18;23.60;49.70
63966;DHT22;50151;52.030;5.350;2022-07-25T17:31:44;23.30;50.70
63966;DHT22;50151;52.030;5.350;2022-07-25T17:34:11;23.40;51.10
63966;DHT22;50151;52.030;5.350;2022-07-25T17:36:38;23.40;51.50
63966;DHT22;50151;52.030;5.350;2022-07-25T17:39:05;23.20;52.20
63966;DHT22;50151;52.030;5.350;2022-07-25T17:41:33;23.00;52.50
63966;DHT22;50151;52.030;5.350;2022-07-25T17:44:00;22.90;53.50
63966;DHT22;50151;52.030;5.350;2022-07-25T17:46:27;22.70;53.40
63966;DHT22;50151;52.030;5.350;2022-07-25T17:48:54;22.80;53.30
63966;DHT22;50151;52.030;5.350;2022-07-25T17:51:21;22.70;53.70
63966;DHT22;50151;52.030;5.350;2022-07-25T17:53:48;22.90;53.70
63966;DHT22;50151;52.030;5.350;2022-07-25T17:56:15;22.70;53.30
63966;DHT22;50151;52.030;5.350;2022-07-25T17:58:42;22.70;53.10
63966;DHT22;50151;52.030;5.350;2022-07-25T18:01:09;22.60;53.50
63966;DHT22;50151;52.030;5.350;2022-07-25T18:03:36;22.60;53.40
63966;DHT22;50151;52.030;5.350;2022-07-25T18:06:04;22.60;53.50
63966;DHT22;50151;52.030;5.350;2022-07-25T18:08:31;22.60;53.30
63966;DHT22;50151;52.030;5.350;2022-07-25T18:11:01;22.50;53.60
63966;DHT22;50151;52.030;5.350;2022-07-25T18:13:29;22.40;54.10
63966;DHT22;50151;52.030;5.350;2022-07-25T18:15:56;22.20;54.70
63966;DHT22;50151;52.030;5.350;2022-07-25T18:18:23;22.40;54.60
63966;DHT22;50151;52.030;5.350;2022-07-25T18:20:50;22.40;54.90
63966;DHT22;50151;52.030;5.350;2022-07-25T18:23:17;22.60;54.80
63966;DHT22;50151;52.030;5.350;2022-07-25T18:25:44;22.40;55.30
63966;DHT22;50151;52.030;5.350;2022-07-25T18:28:11;22.30;55.60
63966;DHT22;50151;52.030;5.350;2022-07-25T18:30:38;22.40;55.80
63966;DHT22;50151;52.030;5.350;2022-07-25T18:33:05;22.40;56.00
63966;DHT22;50151;52.030;5.350;2022-07-25T18:35:33;22.20;56.20
63966;DHT22;50151;52.030;5.350;2022-07-25T18:38:00;22.10;56.10
63966;DHT22;50151;52.030;5.350;2022-07-25T18:40:27;22.00;56.50
63966;DHT22;50151;52.030;5.350;2022-07-25T18:42:54;22.10;56.70
63966;DHT22;50151;52.030;5.350;2022-07-25T18:45:21;21.90;56.50
63966;DHT22;50151;52.030;5.350;2022-07-25T18:47:49;21.90;57.10
63966;DHT22;50151;52.030;5.350;2022-07-25T18:50:16;21.80;57.70
63966;DHT22;50151;52.030;5.350;2022-07-25T18:52:45;21.70;58.20
63966;DHT22;50151;52.030;5.350;2022-07-25T18:55:12;21.80;58.10
63966;DHT22;50151;52.030;5.350;2022-07-25T18:57:39;21.90;58.10
63966;DHT22;50151;52.030;5.350;2022-07-25T19:00:07;21.70;58.60
63966;DHT22;50151;52.030;5.350;2022-07-25T19:02:33;21.70;58.80
63966;DHT22;50151;52.030;5.350;2022-07-25T19:05:00;21.60;59.30
63966;DHT22;50151;52.030;5.350;2022-07-25T19:07:27;21.50;59.70
63966;DHT22;50151;52.030;5.350;2022-07-25T19:09:56;21.50;60.00
63966;DHT22;50151;52.030;5.350;2022-07-25T19:12:23;21.60;60.10
63966;DHT22;50151;52.030;5.350;2022-07-25T19:14:53;21.50;60.40
63966;DHT22;50151;52.030;5.350;2022-07-25T19:17:20;21.40;60.50
63966;DHT22;50151;52.030;5.350;2022-07-25T19:19:47;21.40;60.80
63966;DHT22;50151;52.030;5.350;2022-07-25T19:22:13;21.50;60.90
63966;DHT22;50151;52.030;5.350;2022-07-25T19:24:41;21.40;61.10
63966;DHT22;50151;52.030;5.350;2022-07-25T19:27:09;21.30;61.40
63966;DHT22;50151;52.030;5.350;2022-07-25T19:29:36;21.50;61.20
63966;DHT22;50151;52.030;5.350;2022-07-25T19:32:03;21.30;61.80
63966;DHT22;50151;52.030;5.350;2022-07-25T19:34:30;21.40;62.00
63966;DHT22;50151;52.030;5.350;2022-07-25T19:36:56;21.50;61.80
63966;DHT22;50151;52.030;5.350;2022-07-25T19:39:23;21.30;61.80
63966;DHT22;50151;52.030;5.350;2022-07-25T19:41:51;21.40;62.00
63966;DHT22;50151;52.030;5.350;2022-07-25T19:44:18;21.30;62.20
63966;DHT22;50151;52.030;5.350;2022-07-25T19:46:45;21.50;62.20
63966;DHT22;50151;52.030;5.350;2022-07-25T19:49:12;21.40;62.10
63966;DHT22;50151;52.030;5.350;2022-07-25T19:51:38;21.30;62.30
63966;DHT22;50151;52.030;5.350;2022-07-25T19:54:05;21.40;62.20
63966;DHT22;50151;52.030;5.350;2022-07-25T19:56:34;21.30;62.60
63966;DHT22;50151;52.030;5.350;2022-07-25T19:59:02;21.30;62.90
63966;DHT22;50151;52.030;5.350;2022-07-25T20:01:29;21.40;63.20